Latest Weather Observations for Douglas River

IDD60801

Issued at 10:11 am CST Monday 18 February 2019 (issued every 10 minutes, with the page automatically refreshed every 10 minutes)

About weather observations | Map of weather stations | Latest weather observations for NT | Other Formats
Station Details ID: 014901 Name: DOUGLAS RIVER RESEARCH FARM Lat: -13.83 Lon: 131.19 Height: 42.8 m
Data from the previous 72 hours. | See also: Recent months at Douglas River
Date/Time
CST
Temp
°C
App
Temp
°C
Dew
Point
°C
Rel
Hum
%
Delta-T
°C
Wind Press
QNH
hPa
Press
MSL
hPa
Rain since
9am
mm
Dir  Spd
km/h
Gust
km/h
Spd
kts
Gust
kts
18/10:00am 30.0 35.0 26.0 79 2.8 W 11 15 6 8 1011.2 1010.9 0.0
18/09:30am 29.3 34.8 26.1 83 2.3 NNW 9 15 5 8 1011.3 1011.0 0.0
18/09:00am 28.4 33.6 24.8 81 2.5 NW 6 9 3 5 1011.2 1010.9 3.6
18/08:30am 26.8 31.6 24.1 85 1.9 WNW 6 9 3 5 1010.9 1010.6 3.6
18/08:00am 25.4 31.1 23.8 91 1.1 CALM 0 0 0 0 1010.6 1010.3 3.6
18/07:30am 24.3 28.6 23.3 94 0.7 NNE 6 7 3 4 1010.3 1010.0 3.6
18/07:00am 23.6 28.8 22.9 96 0.5 CALM 0 0 0 0 1009.9 1009.6 3.6
18/06:30am 23.7 28.5 22.9 95 0.5 N 2 6 1 3 1009.6 1009.3 3.6
18/06:00am 23.5 28.6 22.7 95 0.5 CALM 0 0 0 0 1009.4 1009.1 3.6
18/05:30am 23.7 28.5 22.9 95 0.5 WSW 2 7 1 4 1009.4 1009.1 3.6
18/05:00am 23.7 28.8 22.7 94 0.7 CALM 0 0 0 0 1009.5 1009.2 3.6
18/04:30am 24.0 29.3 23.0 94 0.7 CALM 0 0 0 0 1009.5 1009.2 3.6
18/04:00am 24.1 29.5 23.2 95 0.6 CALM 0 0 0 0 1009.2 1008.9 3.6
18/03:30am 24.1 29.4 23.1 94 0.7 CALM 0 0 0 0 1009.3 1009.0 3.6
18/03:00am 24.1 28.3 23.2 95 0.6 SSE 6 7 3 4 1009.6 1009.3 3.6
18/02:30am 24.4 29.9 23.4 94 0.7 CALM 0 0 0 0 1009.7 1009.4 3.6
18/02:00am 24.4 29.9 23.4 94 0.7 CALM 0 0 0 0 1009.9 1009.6 3.6
18/01:30am 24.3 29.6 23.1 93 0.8 CALM 0 0 0 0 1010.1 1009.8 3.6
18/01:00am 24.3 29.6 23.1 93 0.8 CALM 0 0 0 0 1010.4 1010.1 3.6
18/12:30am 24.2 28.4 23.2 94 0.7 WNW 6 7 3 4 1010.7 1010.4 3.6
18/12:00am 24.1 28.7 23.1 94 0.7 NNW 4 7 2 4 1011.1 1010.8 3.6
 
Date/Time
CST
Temp
°C
App
Temp
°C
Dew
Point
°C
Rel
Hum
%
Delta-T
°C
Wind Press
QNH
hPa
Press
MSL
hPa
Rain since
9am
mm
Dir  Spd
km/h
Gust
km/h
Spd
kts
Gust
kts
17/11:30pm 24.0 29.2 22.8 93 0.8 CALM 0 0 0 0 1011.4 1011.1 3.6
17/11:00pm 24.0 29.2 22.8 93 0.8 CALM 0 0 0 0 1011.5 1011.2 3.6
17/10:30pm 24.2 29.4 22.8 92 0.9 CALM 0 0 0 0 1011.3 1011.0 3.6
17/10:00pm 24.3 29.4 22.6 90 1.1 CALM 0 0 0 0 1011.5 1011.2 3.6
17/09:30pm 24.3 27.5 22.4 89 1.3 E 9 13 5 7 1011.4 1011.1 3.6
17/09:00pm 24.0 27.2 22.4 91 1.1 E 9 17 5 9 1010.6 1010.3 3.6
17/08:30pm 23.8 27.5 22.2 91 1.1 NNE 6 6 3 3 1010.2 1009.9 3.6
17/08:00pm 23.8 27.3 22.2 91 1.1 SW 7 11 4 6 1009.4 1009.1 3.6
17/07:30pm 24.0 26.1 21.7 87 1.5 NW 13 22 7 12 1009.2 1008.9 3.4
17/07:00pm 23.2 25.6 21.6 91 1.1 WNW 11 19 6 10 1009.5 1009.2 3.4
17/06:30pm 23.3 24.2 21.9 92 0.9 W 20 30 11 16 1009.6 1009.3 2.2
17/06:00pm 25.9 28.1 22.6 82 2.2 NW 15 26 8 14 1009.0 1008.7 0.0
17/05:30pm 28.2 29.4 20.7 63 5.0 NW 15 35 8 19 1008.0 1007.7 0.0
17/05:29pm 28.4 29.7 20.9 64 5.0 NNW 15 33 8 18 1007.9 1007.6 0.0
17/05:00pm 33.6 36.1 21.1 48 8.4 NW 9 15 5 8 1007.0 1006.7 0.0
17/04:30pm 34.7 38.5 22.4 48 8.5 SW 6 9 3 5 1007.0 1006.7 0.0
17/04:00pm 34.3 38.4 23.3 52 7.6 SSW 7 11 4 6 1007.0 1006.7 0.0
17/03:30pm 34.4 38.7 24.3 55 7.1 SSW 9 13 5 7 1007.7 1007.4 0.0
17/03:00pm 33.8 37.8 23.8 56 7.0 WSW 9 13 5 7 1008.1 1007.8 0.0
17/02:30pm 33.8 37.7 22.9 53 7.5 WSW 7 11 4 6 1008.9 1008.6 0.0
17/02:00pm 33.2 36.7 22.9 54 7.1 WNW 9 13 5 7 1009.5 1009.2 0.0
17/01:30pm 33.1 37.0 24.3 60 6.2 W 11 17 6 9 1010.1 1009.8 0.0
17/01:00pm 32.8 36.4 23.7 58 6.3 W 11 15 6 8 1010.5 1010.2 0.0
17/12:30pm 32.8 37.0 23.2 57 6.6 NW 6 9 3 5 1010.9 1010.6 0.0
17/12:00pm 32.2 36.2 23.7 61 5.9 WNW 9 13 5 7 1011.3 1011.0 0.0
17/11:30am 31.8 35.6 24.7 66 5.0 W 13 20 7 11 1011.6 1011.3 0.0
17/11:00am 31.1 34.4 23.2 63 5.4 WNW 11 22 6 12 1012.0 1011.7 0.0
17/10:30am 30.3 34.6 23.7 68 4.6 NNW 7 13 4 7 1012.0 1011.7 0.0
17/10:00am 29.7 33.9 24.1 72 3.9 WNW 9 13 5 7 1012.1 1011.8 0.0
17/09:30am 28.6 32.7 23.3 73 3.6 NW 7 11 4 6 1012.3 1012.0 0.0
17/09:00am 28.1 32.6 23.7 77 3.0 NW 6 7 3 4 1012.1 1011.8 4.4
17/08:30am 26.3 30.9 24.2 88 1.5 W 7 11 4 6 1012.0 1011.7 4.4
17/08:00am 25.2 30.7 23.4 90 1.2 CALM 0 0 0 0 1011.7 1011.4 4.4
17/07:30am 24.1 28.7 23.1 94 0.7 E 4 7 2 4 1011.5 1011.2 4.4
17/07:00am 23.3 27.5 22.5 95 0.5 NNE 4 7 2 4 1011.1 1010.8 4.4
17/06:30am 23.3 28.0 22.6 96 0.5 NE 2 6 1 3 1010.7 1010.4 4.4
17/06:00am 23.4 27.4 22.7 96 0.5 NNE 6 9 3 5 1010.5 1010.2 4.4
17/05:30am 23.6 28.8 22.9 96 0.5 CALM 0 0 0 0 1010.3 1010.0 4.4
17/05:00am 23.5 28.6 22.7 95 0.5 CALM 0 0 0 0 1009.9 1009.6 4.4
17/04:30am 23.5 28.2 22.7 95 0.5 ENE 2 7 1 4 1009.7 1009.4 4.4
17/04:00am 23.6 28.8 22.8 95 0.5 CALM 0 0 0 0 1009.4 1009.1 4.4
17/03:30am 23.9 29.1 22.9 94 0.7 CALM 0 0 0 0 1009.1 1008.8 4.4
17/03:00am 24.0 28.6 23.1 95 0.6 E 4 6 2 3 1009.2 1008.9 4.4
17/02:30am 24.2 29.6 23.3 95 0.6 CALM 0 0 0 0 1009.3 1009.0 4.4
17/02:00am 24.2 29.6 23.2 94 0.7 CALM 0 0 0 0 1010.1 1009.8 4.4
17/01:30am 24.4 29.9 23.4 94 0.7 CALM 0 0 0 0 1010.7 1010.4 4.4
17/01:00am 24.5 29.7 23.5 94 0.7 E 2 7 1 4 1011.4 1011.1 4.4
17/12:30am 24.5 30.1 23.5 94 0.7 CALM 0 6 0 3 1011.4 1011.1 4.4
17/12:00am 24.5 28.7 23.5 94 0.7 WNW 7 9 4 5 1011.5 1011.2 4.4
 
Date/Time
CST
Temp
°C
App
Temp
°C
Dew
Point
°C
Rel
Hum
%
Delta-T
°C
Wind Press
QNH
hPa
Press
MSL
hPa
Rain since
9am
mm
Dir  Spd
km/h
Gust
km/h
Spd
kts
Gust
kts
16/11:30pm 24.4 29.8 23.2 93 0.8 CALM 0 6 0 3 1011.3 1011.0 4.4
16/11:00pm 24.5 29.3 22.9 91 1.1 NNW 2 6 1 3 1011.7 1011.4 4.4
16/10:30pm 24.8 28.9 23.2 91 1.1 NE 7 13 4 7 1012.6 1012.3 4.4
16/10:00pm 24.7 28.2 23.5 93 0.8 NE 11 20 6 11 1013.1 1012.8 4.2
16/09:30pm 24.6 29.0 23.4 93 0.8 ENE 6 13 3 7 1012.2 1011.9 4.0
16/09:00pm 24.6 29.0 23.4 93 0.8 N 6 11 3 6 1011.8 1011.5 3.6
16/08:30pm 24.8 26.5 23.4 92 1.0 SW 20 26 11 14 1011.6 1011.3 3.0
16/08:00pm 24.9 28.1 23.7 93 0.8 WSW 13 19 7 10 1011.5 1011.2 2.6
16/07:30pm 25.7 29.3 23.0 85 1.8 WNW 9 17 5 9 1010.9 1010.6 2.6
16/07:00pm 25.4 29.2 23.5 89 1.3 W 9 17 5 9 1012.2 1011.9 1.2
16/06:58pm 25.5 29.4 23.6 89 1.3 W 9 13 5 7 1012.0 1011.7 0.8
16/06:30pm 26.1 28.9 23.0 83 2.1 NW 13 24 7 13 1010.0 1009.7 0.0
16/06:00pm 26.5 28.2 23.0 81 2.4 WNW 19 35 10 19 1009.2 1008.9 0.0
16/05:30pm 29.7 33.2 22.9 67 4.7 NW 9 15 5 8 1008.7 1008.4 0.0
16/05:00pm 30.8 32.7 21.3 57 6.4 SSW 13 19 7 10 1007.6 1007.3 0.0
16/04:30pm 35.7 39.3 23.0 48 8.8 ENE 9 11 5 6 1006.8 1006.5 0.0
16/04:00pm 35.0 38.7 22.3 47 8.7 N 6 7 3 4 1007.2 1006.9 0.0
16/03:30pm 36.3 41.0 23.9 49 8.7 WSW 6 11 3 6 1008.0 1007.7 0.0
16/03:00pm 35.4 41.3 25.9 58 6.8 S 6 11 3 6 1008.3 1008.0 0.0
16/02:30pm 34.9 40.7 25.1 56 7.0 NE 4 13 2 7 1008.5 1008.2 0.0
16/02:00pm 34.5 38.9 24.4 55 7.1 NW 9 13 5 7 1009.1 1008.8 0.0
16/01:30pm 34.1 39.4 24.9 58 6.5 S 6 13 3 7 1010.2 1009.9 0.0
16/01:00pm 33.5 39.1 26.3 66 5.2 SW 9 15 5 8 1010.9 1010.6 0.0
16/12:30pm 33.3 39.1 26.1 66 5.2 SSW 7 13 4 7 1011.2 1010.9 0.0
16/12:00pm 33.0 38.0 24.5 61 6.0 NE 6 9 3 5 1011.7 1011.4 0.0
16/11:30am 32.9 39.6 27.4 73 4.0 NNW 7 11 4 6 1011.9 1011.6 0.0
16/11:00am 31.8 37.9 25.6 69 4.4 NW 4 9 2 5 1012.5 1012.2 0.0
16/10:30am 31.6 36.9 25.0 68 4.7 ENE 6 9 3 5 1012.8 1012.5 0.0
16/10:00am 30.9 36.5 25.5 73 3.8 ENE 6 11 3 6 1012.9 1012.6 0.0
16/09:30am 30.2 35.5 25.9 78 3.1 E 9 13 5 7 1013.1 1012.8 0.0
16/09:00am 28.2 33.9 25.6 86 1.8 E 6 9 3 5 1013.1 1012.8 1.6
16/08:30am 27.4 33.5 25.0 87 1.7 SE 2 7 1 4 1013.0 1012.7 1.6
16/08:00am 26.6 33.1 25.0 91 1.1 CALM 0 0 0 0 1012.5 1012.2 1.6
16/07:30am 26.0 32.3 24.8 93 0.8 CALM 0 0 0 0 1012.0 1011.7 1.6
16/07:00am 25.4 31.5 24.4 94 0.7 CALM 0 0 0 0 1011.6 1011.3 1.6
16/06:30am 25.5 31.1 24.3 93 0.8 SSW 2 7 1 4 1011.4 1011.1 1.6
16/06:00am 25.8 31.8 24.2 91 1.1 CALM 0 0 0 0 1011.5 1011.2 1.6
16/05:30am 25.7 31.6 24.1 91 1.1 CALM 0 0 0 0 1011.3 1011.0 1.6
16/05:00am 25.6 31.3 23.8 90 1.2 CALM 0 0 0 0 1011.2 1010.9 1.6
16/04:30am 25.6 30.2 23.8 90 1.2 N 6 6 3 3 1010.9 1010.6 1.6
16/04:00am 25.5 30.5 23.9 91 1.1 N 4 7 2 4 1011.0 1010.7 1.6
16/03:30am 25.4 30.9 24.0 92 1.0 N 2 6 1 3 1011.0 1010.7 1.6
16/03:00am 25.2 31.0 24.0 93 0.8 CALM 0 6 0 3 1010.9 1010.6 1.6
16/02:30am 25.2 31.0 24.0 93 0.8 CALM 0 0 0 0 1011.2 1010.9 1.6
16/02:00am 25.3 29.8 23.7 91 1.1 ENE 6 7 3 4 1011.7 1011.4 1.6
16/01:30am 25.3 29.5 23.5 90 1.2 NNW 7 11 4 6 1012.0 1011.7 1.6
16/01:00am 25.1 28.8 23.3 90 1.2 WNW 9 11 5 6 1012.4 1012.1 1.4
16/12:30am 25.8 30.5 23.3 86 1.7 W 4 7 2 4 1012.8 1012.5 0.8
16/12:00am 26.8 32.1 23.7 83 2.1 NW 2 7 1 4 1013.1 1012.8 0.0
 
Date/Time
CST
Temp
°C
App
Temp
°C
Dew
Point
°C
Rel
Hum
%
Delta-T
°C
Wind Press
QNH
hPa
Press
MSL
hPa
Rain since
9am
mm
Dir  Spd
km/h
Gust
km/h
Spd
kts
Gust
kts
15/11:30pm 26.8 31.3 23.7 83 2.1 N 6 11 3 6 1013.1 1012.8 0.0
15/11:00pm 26.6 30.9 23.7 84 2.0 NW 7 9 4 5 1013.0 1012.7 0.0
15/10:30pm 26.9 30.8 22.9 79 2.7 NNW 7 9 4 5 1012.3 1012.0 0.0
15/10:00pm 27.2 31.3 23.2 79 2.7 NNW 7 11 4 6 1012.0 1011.7 0.0
15/09:30pm 27.5 31.3 23.5 79 2.7 NNW 9 13 5 7 1011.7 1011.4 0.0
15/09:00pm 28.2 32.1 23.6 76 3.2 NNW 9 11 5 6 1011.3 1011.0 0.0
15/08:30pm 28.9 32.9 23.8 74 3.5 NW 9 15 5 8 1010.9 1010.6 0.0
15/08:00pm 30.1 34.3 24.7 73 3.8 NNW 11 20 6 11 1010.9 1010.6 0.0
15/07:30pm 30.7 35.4 23.9 67 4.7 NNE 6 7 3 4 1010.2 1009.9 0.0
15/07:00pm 31.9 37.7 24.5 65 5.2 NE 2 7 1 4 1009.6 1009.3 0.0
15/06:30pm 33.2 38.2 23.8 57 6.6 NNE 4 6 2 3 1009.1 1008.8 0.0
15/06:00pm 34.6 40.4 23.9 53 7.5 CALM 0 6 0 3 1008.8 1008.5 0.0
15/05:30pm 34.9 38.4 21.9 46 8.9 NNW 6 11 3 6 1008.4 1008.1 0.0
15/05:00pm 35.6 39.1 21.8 44 9.4 NNE 6 9 3 5 1008.2 1007.9 0.0
15/04:30pm 35.7 38.7 21.9 44 9.5 N 9 13 5 7 1008.1 1007.8 0.0
15/04:00pm 36.0 39.9 23.6 48 8.7 NNW 9 13 5 7 1008.4 1008.1 0.0
15/03:30pm 35.7 38.8 21.5 43 9.7 N 7 13 4 7 1009.1 1008.8 0.0
15/03:00pm 35.3 39.6 23.6 50 8.2 N 7 11 4 6 1009.4 1009.1 0.0
15/02:30pm 35.1 39.5 23.4 50 8.2 N 6 13 3 7 1009.6 1009.3 0.0
15/02:00pm 35.1 40.4 25.0 56 7.2 ENE 6 13 3 7 1010.1 1009.8 0.0
15/01:30pm 34.4 37.7 21.8 48 8.6 NW 7 13 4 7 1010.6 1010.3 0.0
15/01:00pm 34.2 38.7 23.9 55 7.2 NW 7 13 4 7 1010.9 1010.6 0.0
15/12:30pm 33.3 36.9 22.4 52 7.5 N 7 13 4 7 1011.6 1011.3 0.0
15/12:00pm 33.0 36.6 23.0 55 6.9 NNW 9 17 5 9 1012.1 1011.8 0.0
15/11:30am 32.3 37.2 24.6 64 5.4 NNW 7 15 4 8 1012.5 1012.2 0.0
15/11:00am 31.4 35.2 24.0 65 5.2 W 11 15 6 8 1012.6 1012.3 0.0
15/10:30am 30.8 35.1 24.9 71 4.2 WNW 11 13 6 7 1012.8 1012.5 0.0

Other formats

Comma delimited format used in spreadsheet applications
http://www.bom.gov.au/fwo/IDD60801/IDD60801.94128.axf

JavaScript Object Notation format (JSON) in row-major order
http://www.bom.gov.au/fwo/IDD60801/IDD60801.94128.json

Data quality

Most of these data are generated automatically and are frequently updated. Quality checks on data are not normally performed. It is possible for incorrect values to appear. Refer to information at About Latest Weather Observations and please check the disclaimer before using these data.